createdAt,value
2019-01-04T16:00:28.623Z,1031.44
2019-01-04T16:01:28.534Z,1031.48
2019-01-04T16:02:28.586Z,1031.49
2019-01-04T16:03:28.638Z,1031.41
2019-01-04T16:04:28.690Z,1031.46
2019-01-04T16:05:28.758Z,1031.47
2019-01-04T16:06:28.806Z,1031.46
2019-01-04T16:07:28.860Z,1031.38
2019-01-04T16:08:28.911Z,1031.35
2019-01-04T16:09:28.966Z,1031.26
2019-01-04T16:10:29.035Z,1031.29
2019-01-04T16:11:29.090Z,1031.25
2019-01-04T16:12:29.135Z,1031.27
2019-01-04T16:13:29.191Z,1031.34
2019-01-04T16:14:29.251Z,1031.35
2019-01-04T16:15:29.315Z,1031.34
2019-01-04T16:16:29.372Z,1031.45
2019-01-04T16:17:29.424Z,1031.49
2019-01-04T16:18:29.483Z,1031.43
2019-01-04T16:19:29.539Z,1031.49
2019-01-04T16:20:29.604Z,1031.47
2019-01-04T16:21:29.696Z,1031.50
2019-01-04T16:22:29.711Z,1031.50
2019-01-04T16:23:29.771Z,1031.51
2019-01-04T16:24:29.827Z,1031.51
2019-01-04T16:25:29.895Z,1031.49
2019-01-04T16:26:29.955Z,1031.47
2019-01-04T16:27:30.008Z,1031.43
2019-01-04T16:28:30.068Z,1031.46
2019-01-04T16:29:30.128Z,1031.45
2019-01-04T16:30:30.275Z,1031.50
2019-01-04T16:31:30.244Z,1031.55
2019-01-04T16:32:30.299Z,1031.59
2019-01-04T16:33:30.430Z,1031.60
2019-01-04T16:34:30.423Z,1031.49
2019-01-04T16:35:30.484Z,1031.54
2019-01-04T16:36:30.541Z,1031.55
2019-01-04T16:37:30.595Z,1031.55
2019-01-04T16:38:30.654Z,1031.46
2019-01-04T16:39:30.712Z,1031.43
2019-01-04T16:40:30.785Z,1031.27
2019-01-04T16:41:30.836Z,1031.25
2019-01-04T16:42:30.888Z,1031.23
2019-01-04T16:43:30.948Z,1031.25
2019-01-04T16:44:31.012Z,1031.23
2019-01-04T16:45:31.072Z,1031.16
2019-01-04T16:46:31.133Z,1031.16
2019-01-04T16:47:31.188Z,1031.10
2019-01-04T16:48:31.245Z,1031.12
2019-01-04T16:49:31.305Z,1031.05
2019-01-04T16:50:31.373Z,1031.08
2019-01-04T16:51:31.429Z,1031.08
2019-01-04T16:52:31.481Z,1031.04
2019-01-04T16:53:31.541Z,1031.02
2019-01-04T16:54:31.597Z,1031.02
2019-01-04T16:55:31.665Z,1030.97
2019-01-04T16:56:31.725Z,1031.01
2019-01-04T16:57:31.777Z,1031.02
2019-01-04T16:58:31.839Z,1030.96
2019-01-04T16:59:31.893Z,1031.04
2019-01-04T17:00:31.961Z,1031.13
2019-01-04T17:01:32.025Z,1031.14
2019-01-04T17:02:32.077Z,1031.12
2019-01-04T17:03:32.133Z,1031.13
2019-01-04T17:04:32.193Z,1031.08
2019-01-04T17:05:32.495Z,1031.02
2019-01-04T17:06:32.313Z,1031.04
2019-01-04T17:07:32.369Z,1031.00
2019-01-04T17:08:32.430Z,1030.96
2019-01-04T17:09:32.502Z,1031.00
2019-01-04T17:10:32.554Z,1030.98
2019-01-04T17:11:32.618Z,1030.99
2019-01-04T17:12:32.677Z,1031.00
2019-01-04T17:13:32.726Z,1031.04
2019-01-04T17:14:32.782Z,1031.05
2019-01-04T17:15:32.850Z,1030.99
2019-01-04T17:16:32.910Z,1030.93
2019-01-04T17:17:32.970Z,1030.98
2019-01-04T17:18:33.022Z,1031.03
2019-01-04T17:19:33.082Z,1031.09
2019-01-04T17:20:33.254Z,1031.12
2019-01-04T17:21:33.198Z,1031.07
2019-01-04T17:22:33.283Z,1031.07
2019-01-04T17:23:33.319Z,1031.05
2019-01-04T17:24:33.374Z,1031.05
2019-01-04T17:25:33.442Z,1031.06
2019-01-04T17:26:33.504Z,1031.04
2019-01-04T17:27:33.554Z,1031.04
2019-01-04T17:28:33.617Z,1031.01
2019-01-04T17:29:33.671Z,1030.94
2019-01-04T17:30:33.739Z,1030.98
2019-01-04T17:31:33.799Z,1030.92
2019-01-04T17:32:33.851Z,1031.02
2019-01-04T17:33:33.909Z,1030.98
2019-01-04T17:34:33.967Z,1030.95
2019-01-04T17:35:34.037Z,1030.92
2019-01-04T17:36:34.095Z,1030.85
2019-01-04T17:37:34.147Z,1030.88
2019-01-04T17:38:34.203Z,1030.94
2019-01-04T17:39:34.263Z,1030.91
2019-01-04T17:40:34.333Z,1030.93
2019-01-04T17:41:34.392Z,1030.95
2019-01-04T17:42:34.439Z,1030.96
2019-01-04T17:43:34.501Z,1030.90
2019-01-04T17:44:34.560Z,1030.97
2019-01-04T17:45:34.624Z,1030.89
2019-01-04T17:46:34.684Z,1030.88
2019-01-04T17:47:34.736Z,1030.83
2019-01-04T17:48:35.624Z,1030.85
2019-01-04T17:49:34.856Z,1030.87
2019-01-04T17:50:35.024Z,1030.83
2019-01-04T17:51:34.980Z,1030.89
2019-01-04T17:52:35.032Z,1030.87
2019-01-04T17:53:35.092Z,1030.86
2019-01-04T17:54:35.148Z,1030.85
2019-01-04T17:55:35.208Z,1030.80
2019-01-04T17:56:35.356Z,1030.80
2019-01-04T17:57:35.332Z,1030.84
2019-01-04T17:58:36.108Z,1030.86
2019-01-04T17:59:35.448Z,1030.87
2019-01-04T18:00:35.505Z,1030.86
2019-01-04T18:01:35.572Z,1030.79
2019-01-04T18:02:35.648Z,1030.82
2019-01-04T18:03:35.680Z,1030.81
2019-01-04T18:04:36.584Z,1030.81
2019-01-04T18:05:35.801Z,1030.82
2019-01-04T18:06:35.865Z,1030.90
2019-01-04T18:07:35.925Z,1030.86
2019-01-04T18:08:35.977Z,1030.94
2019-01-04T18:09:36.037Z,1030.90
2019-01-04T18:10:36.625Z,1030.94
2019-01-04T18:11:37.261Z,1030.91
2019-01-04T18:12:36.213Z,1030.94
2019-01-04T18:13:36.277Z,1030.90
2019-01-04T18:14:36.329Z,1030.91
2019-01-04T18:15:36.389Z,1030.87
2019-01-04T18:16:36.445Z,1030.94
2019-01-04T18:17:36.697Z,1030.88
2019-01-04T18:18:36.643Z,1030.93
2019-01-04T18:19:36.625Z,1030.99
2019-01-04T18:20:36.686Z,1030.94
2019-01-04T18:21:37.629Z,1031.01
2019-01-04T18:22:36.810Z,1030.96
2019-01-04T18:23:36.869Z,1030.96
2019-01-04T18:24:36.922Z,1030.90
2019-01-04T18:25:36.982Z,1030.95
2019-01-04T18:26:37.038Z,1030.93
2019-01-04T18:27:37.214Z,1030.97
2019-01-04T18:28:37.158Z,1030.97
2019-01-04T18:29:37.218Z,1030.92
2019-01-04T18:30:37.274Z,1030.91
2019-01-04T18:31:37.334Z,1030.91
2019-01-04T18:32:37.403Z,1030.97
2019-01-04T18:33:37.458Z,1030.95
2019-01-04T18:34:37.514Z,1031.00
2019-01-04T18:35:37.570Z,1030.97
2019-01-04T18:36:37.635Z,1031.05
2019-01-04T18:37:37.698Z,1030.99
2019-01-04T18:38:37.755Z,1030.99
2019-01-04T18:39:37.803Z,1031.00
2019-01-04T18:40:37.867Z,1031.02
2019-01-04T18:41:37.928Z,1031.00
2019-01-04T18:42:37.990Z,1030.98
2019-01-04T18:43:38.051Z,1031.00
2019-01-04T18:44:38.492Z,1030.99
2019-01-04T18:45:38.163Z,1030.98
2019-01-04T18:46:38.223Z,1030.97
2019-01-04T18:47:39.366Z,1030.96
2019-01-04T18:48:38.439Z,1030.95
2019-01-04T18:49:38.403Z,1030.94
2019-01-04T18:50:38.464Z,1030.94
2019-01-04T18:51:38.516Z,1030.96
2019-01-04T18:52:38.575Z,1030.96
2019-01-04T18:53:38.643Z,1030.99
2019-01-04T18:54:38.699Z,1030.99
2019-01-04T18:55:38.758Z,1030.94
2019-01-04T18:56:38.815Z,1030.92
2019-01-04T18:57:38.871Z,1030.95
2019-01-04T18:58:38.932Z,1030.91
2019-01-04T18:59:39.236Z,1030.92
2019-01-04T19:00:39.047Z,1030.94
2019-01-04T19:01:39.107Z,1030.96
2019-01-04T19:02:39.168Z,1031.00
2019-01-04T19:03:39.228Z,1031.02
2019-01-04T19:04:39.297Z,1030.97
2019-01-04T19:05:39.354Z,1030.99
2019-01-04T19:06:39.403Z,1031.02
2019-01-04T19:07:39.464Z,1031.04
2019-01-04T19:08:39.526Z,1031.07
2019-01-04T19:09:39.592Z,1031.12
2019-01-04T19:10:39.648Z,1031.09
2019-01-04T19:11:39.702Z,1031.06
2019-01-04T19:12:39.760Z,1031.04
2019-01-04T19:13:39.816Z,1031.04
2019-01-04T19:14:39.884Z,1031.09
2019-01-04T19:15:39.944Z,1031.08
2019-01-04T19:16:39.997Z,1031.07
2019-01-04T19:17:40.055Z,1031.05
2019-01-04T19:18:40.112Z,1031.08
2019-01-04T19:19:40.172Z,1031.09
2019-01-04T19:20:40.325Z,1031.12
2019-01-04T19:21:40.590Z,1031.07
2019-01-04T19:22:40.349Z,1031.00
2019-01-04T19:23:40.410Z,1030.98
2019-01-04T19:24:40.469Z,1031.03
2019-01-04T19:25:40.533Z,1031.00
2019-01-04T19:26:40.593Z,1031.08
2019-01-04T19:27:40.644Z,1031.04
2019-01-04T19:28:40.705Z,1031.09
2019-01-04T19:29:40.761Z,1031.10
2019-01-04T19:30:40.832Z,1031.08
2019-01-04T19:31:40.890Z,1031.07
2019-01-04T19:32:40.941Z,1031.11
2019-01-04T19:33:40.997Z,1031.11
2019-01-04T19:34:41.061Z,1031.14
2019-01-04T19:35:41.269Z,1031.08
2019-01-04T19:36:41.181Z,1031.10
2019-01-04T19:37:41.233Z,1031.10
2019-01-04T19:38:41.294Z,1031.10
2019-01-04T19:39:41.358Z,1031.10
2019-01-04T19:40:41.418Z,1031.09
2019-01-04T19:41:41.478Z,1031.05
2019-01-04T19:42:41.530Z,1031.02
2019-01-04T19:43:41.589Z,1031.07
2019-01-04T19:44:41.654Z,1031.08
2019-01-04T19:45:41.714Z,1031.09
2019-01-04T19:46:41.774Z,1031.08
2019-01-04T19:47:41.826Z,1031.06
2019-01-04T19:48:41.886Z,1031.08
2019-01-04T19:49:41.942Z,1031.09
2019-01-04T19:50:42.010Z,1031.10
2019-01-04T19:51:42.073Z,1031.06
2019-01-04T19:52:42.122Z,1031.08
2019-01-04T19:53:42.178Z,1031.10
2019-01-04T19:54:42.238Z,1031.12
2019-01-04T19:55:42.298Z,1031.10
2019-01-04T19:56:42.666Z,1031.06
2019-01-04T19:57:42.414Z,1031.05
2019-01-04T19:58:42.486Z,1031.07
2019-01-04T19:59:42.535Z,1031.06
2019-01-04T20:00:42.595Z,1031.05
2019-01-04T20:01:42.650Z,1031.05
2019-01-04T20:02:42.802Z,1031.03
2019-01-04T20:03:42.771Z,1031.03
2019-01-04T20:04:42.827Z,1031.02
2019-01-04T20:05:42.886Z,1031.01
2019-01-04T20:06:42.951Z,1030.93
2019-01-04T20:07:43.019Z,1030.94
2019-01-04T20:08:43.071Z,1030.95
2019-01-04T20:09:43.123Z,1030.95
2019-01-04T20:10:43.183Z,1030.92
2019-01-04T20:11:43.243Z,1030.89
2019-01-04T20:12:43.299Z,1030.91
2019-01-04T20:13:43.432Z,1030.92
2019-01-04T20:14:43.419Z,1030.90
2019-01-04T20:15:43.484Z,1030.89
2019-01-04T20:16:43.535Z,1030.88
2019-01-04T20:17:43.596Z,1030.89
2019-01-04T20:18:43.663Z,1030.90
2019-01-04T20:19:43.723Z,1030.87
2019-01-04T20:20:43.772Z,1030.92
2019-01-04T20:21:43.832Z,1030.86
2019-01-04T20:22:43.891Z,1030.92
2019-01-04T20:23:43.956Z,1030.87
2019-01-04T20:24:44.018Z,1030.88
2019-01-04T20:25:44.067Z,1030.88
2019-01-04T20:26:44.124Z,1030.90
2019-01-04T20:27:44.188Z,1030.87
2019-01-04T20:28:44.244Z,1030.89
2019-01-04T20:29:44.351Z,1030.86
2019-01-04T20:30:44.368Z,1030.81
2019-01-04T20:31:44.430Z,1030.83
2019-01-04T20:32:44.480Z,1030.85
2019-01-04T20:33:44.540Z,1030.85
2019-01-04T20:34:44.615Z,1030.85
2019-01-04T20:35:44.664Z,1030.86
2019-01-04T20:36:44.737Z,1030.87
2019-01-04T20:37:44.778Z,1030.89
2019-01-04T20:38:44.836Z,1030.81
2019-01-04T20:39:44.905Z,1030.86
2019-01-04T20:40:44.965Z,1030.83
2019-01-04T20:41:45.015Z,1030.86
2019-01-04T20:42:45.077Z,1030.87
2019-01-04T20:43:45.129Z,1030.84
2019-01-04T20:44:45.321Z,1030.88
2019-01-04T20:45:45.249Z,1030.86
2019-01-04T20:46:45.308Z,1030.86
2019-01-04T20:47:45.365Z,1030.87
2019-01-04T20:48:45.425Z,1030.88
2019-01-04T20:49:45.493Z,1030.87
2019-01-04T20:50:45.550Z,1030.83
2019-01-04T20:51:45.629Z,1030.85
2019-01-04T20:52:45.661Z,1030.83
2019-01-04T20:53:45.721Z,1030.86
2019-01-04T20:54:45.789Z,1030.86
2019-01-04T20:55:45.848Z,1030.85
2019-01-04T20:56:45.901Z,1030.86
2019-01-04T20:57:45.957Z,1030.85
2019-01-04T20:58:46.018Z,1030.86
2019-01-04T20:59:46.074Z,1030.84
2019-01-04T21:00:46.354Z,1030.83
2019-01-04T21:01:46.194Z,1030.82
2019-01-04T21:02:46.250Z,1030.83
2019-01-04T21:03:46.310Z,1030.81
2019-01-04T21:04:46.381Z,1030.84
2019-01-04T21:05:47.380Z,1030.83
2019-01-04T21:06:46.494Z,1030.85
2019-01-04T21:07:46.548Z,1030.82
2019-01-04T21:08:46.606Z,1030.83
2019-01-04T21:09:46.671Z,1030.82
2019-01-04T21:10:46.731Z,1030.87
2019-01-04T21:11:46.790Z,1030.81
2019-01-04T21:12:46.842Z,1030.88
2019-01-04T21:13:46.903Z,1030.87
2019-01-04T21:14:46.963Z,1030.85
2019-01-04T21:15:47.030Z,1030.79
2019-01-04T21:16:47.087Z,1030.83
2019-01-04T21:17:47.139Z,1030.77
2019-01-04T21:18:47.199Z,1030.77
2019-01-04T21:19:47.255Z,1030.83
2019-01-04T21:20:47.323Z,1030.76
2019-01-04T21:21:47.383Z,1030.75
2019-01-04T21:22:47.435Z,1030.77
2019-01-04T21:23:47.495Z,1030.79
2019-01-04T21:24:47.643Z,1030.80
2019-01-04T21:25:47.623Z,1030.78
2019-01-04T21:26:47.675Z,1030.77
2019-01-04T21:27:47.731Z,1030.78
2019-01-04T21:28:47.787Z,1030.75
2019-01-04T21:29:47.851Z,1030.76
2019-01-04T21:30:47.912Z,1030.71
2019-01-04T21:31:47.971Z,1030.68
2019-01-04T21:32:48.031Z,1030.68
2019-01-04T21:33:48.083Z,1030.65
2019-01-04T21:34:48.139Z,1030.64
2019-01-04T21:35:48.447Z,1030.63
2019-01-04T21:36:48.259Z,1030.66
2019-01-04T21:37:48.633Z,1030.63
2019-01-04T21:38:48.375Z,1030.61
2019-01-04T21:39:48.438Z,1030.65
2019-01-04T21:40:48.504Z,1030.58
2019-01-04T21:41:48.564Z,1030.57
2019-01-04T21:42:48.612Z,1030.58
2019-01-04T21:43:48.677Z,1030.58
2019-01-04T21:44:48.904Z,1030.59
2019-01-04T21:45:49.196Z,1030.56
2019-01-04T21:46:49.140Z,1030.55
2019-01-04T21:47:48.944Z,1030.53
2019-01-04T21:48:48.968Z,1030.60
2019-01-04T21:49:49.028Z,1030.59
2019-01-04T21:50:49.328Z,1030.57
2019-01-04T21:51:49.142Z,1030.55
2019-01-04T21:52:49.217Z,1030.52
2019-01-04T21:53:49.264Z,1030.51
2019-01-04T21:54:49.324Z,1030.48
2019-01-04T21:55:49.397Z,1030.47
2019-01-04T21:56:49.458Z,1030.50
2019-01-04T21:57:49.500Z,1030.46
2019-01-04T21:58:49.562Z,1030.45
2019-01-04T21:59:49.617Z,1030.44
2019-01-04T22:00:49.685Z,1030.47
2019-01-04T22:01:49.753Z,1030.49
2019-01-04T22:02:49.793Z,1030.45
2019-01-04T22:03:49.853Z,1030.44
2019-01-04T22:04:49.914Z,1030.37
2019-01-04T22:05:49.981Z,1030.35
2019-01-04T22:06:50.037Z,1030.33
2019-01-04T22:07:50.089Z,1030.32
2019-01-04T22:08:50.150Z,1030.35
2019-01-04T22:09:50.213Z,1030.36
2019-01-04T22:10:50.297Z,1030.36
2019-01-04T22:11:50.325Z,1030.36
2019-01-04T22:12:50.385Z,1030.32
2019-01-04T22:13:50.442Z,1030.29
2019-01-04T22:14:50.517Z,1030.28
2019-01-04T22:15:50.570Z,1030.30
2019-01-04T22:16:50.632Z,1030.28
2019-01-04T22:17:50.682Z,1030.27
2019-01-04T22:18:50.742Z,1030.24
2019-01-04T22:19:50.798Z,1030.24
2019-01-04T22:20:50.862Z,1030.25
2019-01-04T22:21:50.922Z,1030.26
2019-01-04T22:22:50.971Z,1030.27
2019-01-04T22:23:51.046Z,1030.22
2019-01-04T22:24:51.090Z,1030.26
2019-01-04T22:25:51.182Z,1030.20
2019-01-04T22:26:51.466Z,1030.19
2019-01-04T22:27:51.270Z,1030.20
2019-01-04T22:28:51.330Z,1030.17
2019-01-04T22:29:52.017Z,1030.11
2019-01-04T22:30:51.446Z,1030.11
2019-01-04T22:31:52.295Z,1030.08
2019-01-04T22:32:51.566Z,1030.08
2019-01-04T22:33:51.639Z,1030.07
2019-01-04T22:34:51.688Z,1030.10
2019-01-04T22:35:51.743Z,1030.05
2019-01-04T22:36:51.806Z,1030.07
2019-01-04T22:37:51.867Z,1030.00
2019-01-04T22:38:51.918Z,1029.99
2019-01-04T22:39:51.975Z,1030.00
2019-01-04T22:40:52.044Z,1030.01
2019-01-04T22:41:52.189Z,1029.95
2019-01-04T22:42:52.151Z,1029.92
2019-01-04T22:43:52.211Z,1029.92
2019-01-04T22:44:52.275Z,1029.95
2019-01-04T22:45:52.335Z,1029.97
2019-01-04T22:46:52.399Z,1029.99
2019-01-04T22:47:52.455Z,1029.99
2019-01-04T22:48:52.523Z,1029.99
2019-01-04T22:49:52.579Z,1029.94
2019-01-04T22:50:52.625Z,1029.97
2019-01-04T22:51:52.695Z,1030.00
2019-01-04T22:52:52.759Z,1029.94
2019-01-04T22:53:52.803Z,1029.94
2019-01-04T22:54:52.863Z,1029.95
2019-01-04T22:55:52.922Z,1029.94
2019-01-04T22:56:52.987Z,1029.95
2019-01-04T22:57:53.044Z,1029.90
2019-01-04T22:58:53.100Z,1029.90
2019-01-04T22:59:53.160Z,1029.87
2019-01-04T23:00:53.216Z,1029.89
2019-01-04T23:01:53.276Z,1029.91
2019-01-04T23:02:53.449Z,1029.93
2019-01-04T23:03:53.391Z,1029.92
2019-01-04T23:04:53.484Z,1029.92
2019-01-04T23:05:53.508Z,1029.87
2019-01-04T23:06:53.571Z,1029.87
2019-01-04T23:07:53.636Z,1029.86
2019-01-04T23:08:53.696Z,1029.76
2019-01-04T23:09:53.744Z,1029.74
2019-01-04T23:10:53.804Z,1029.70
2019-01-04T23:11:53.864Z,1029.70
2019-01-04T23:12:53.996Z,1029.70
2019-01-04T23:13:53.988Z,1029.78
2019-01-04T23:14:54.040Z,1029.74
2019-01-04T23:15:54.097Z,1029.73
